今朝の羽田(2017/05/01)

QFA25/VH-OJS(B744)

ANA105/JA777A(B77W)

ANA880/JA871A(B789)

*ACA7178/C-FITU(B77W)

HKE624/B-LEB(A321)

JAL36/JA707J(B772) CONTRAIL c/s

ANA850/JA886A(B789)

ANA822/JA615A(B763)

JAL34/JA703J(B772)

*TTW217/B-50015(A320)

ANA844/JA884A(B789)

THA682/HS-TGG(B744)

ANA856/JA888A(B789)

ANA204/JA787A(B77W)

SIA636/9V-SWV(B77W)

*APJ859/JA805P(A320)

*ANA9005/JA64AN(B738)

*AAR177/HL8259(A333)

JAL70/JA827J(B788)

BAW7/G-STBL(B77W)

*HKE625/B-LEB(A321)

RJTT 302000Z VRB02KT CAVOK 17/13 Q1010 NOSIG RMK A2983

RJTT 302100Z 05005KT CAVOK 17/13 Q1010 NOSIG RMK A2984

RJTT 302200Z 04003KT 020V090 CAVOK 17/13 Q1011 NOSIG

今朝の羽田は晴れています。